Check out our new PWSWeather beta!
PWSweather.com
Personal Weather Stations
Station Observations
SEVANL01
SevillaES 41004

SevillaES 41004

Lat: 37.383633, Lon: -5.985787

Elevation: 19.685

Station Type: Davis Vantage Pro2

www.tiempoensevilla.es

High Low Average
Temperature 58.1°F14.5°C 46.8°F8.2°C 52.6°F11.4°C
Dew Point 43.6°F6.4°C 34.0°F1.1°C 38.4°F3.6°C
Winds 6.5 mph 10.5 kmh 1.1 mph 1.8 kmh 4.0 mph W6.4 kmh W
Wind Gusts 14.0 mph22.5 kmh 4.0 mph6.4 kmh 9.0 mph14.5 kmh
Humidity 78% 43% 60%
Pressure 29.83 in1010.2 mb 29.74 in1007.1 mb -
Precipitation 0.00 in0.0 mm - -
Hour Temp Dew Point Humidity Winds Wind Gusts Pressure Precip Precip Rate Daily Precip Total
12:00 AM 53.1°F11.7°C 43.6°F6.4°C 70% 4.9 mph WNW7.9 kmh WNW 12.0 mph19.3 kmh 29.81 in1009.5 mb 0.00 in0.0 mm 0.00 in0.0 mm 0.00 in0.0 mm
12:20 AM 53.0°F11.7°C 42.7°F5.9°C 68% 5.2 mph WNW8.4 kmh WNW 14.0 mph22.5 kmh 29.82 in1009.8 mb 0.00 in0.0 mm 0.00 in0.0 mm 0.00 in0.0 mm
12:40 AM 52.8°F11.6°C 42.5°F5.8°C 68% 4.9 mph W7.9 kmh W 11.0 mph17.7 kmh 29.81 in1009.5 mb 0.00 in0.0 mm 0.00 in0.0 mm 0.00 in0.0 mm
01:00 AM 52.8°F11.6°C 42.5°F5.8°C 68% 4.2 mph W6.8 kmh W 10.0 mph16.1 kmh 29.81 in1009.5 mb 0.00 in0.0 mm 0.00 in0.0 mm 0.00 in0.0 mm
01:20 AM 52.3°F11.3°C 43.5°F6.4°C 72% 5.1 mph W8.2 kmh W 10.0 mph16.1 kmh 29.81 in1009.5 mb 0.00 in0.0 mm 0.00 in0.0 mm 0.00 in0.0 mm
01:40 AM 52.0°F11.1°C 43.3°F6.3°C 72% 4.6 mph WSW7.4 kmh WSW 12.0 mph19.3 kmh 29.80 in1009.1 mb 0.00 in0.0 mm 0.00 in0.0 mm 0.00 in0.0 mm
02:00 AM 51.8°F11.0°C 42.3°F5.7°C 70% 5.0 mph WSW8.0 kmh WSW 10.0 mph16.1 kmh 29.80 in1009.1 mb 0.00 in0.0 mm 0.00 in0.0 mm 0.00 in0.0 mm
02:20 AM 51.6°F10.9°C 41.8°F5.4°C 69% 3.5 mph WSW5.6 kmh WSW 8.0 mph12.9 kmh 29.80 in1009.1 mb 0.00 in0.0 mm 0.00 in0.0 mm 0.00 in0.0 mm
02:40 AM 50.6°F10.3°C 41.5°F5.3°C 71% 3.6 mph SW5.8 kmh SW 9.0 mph14.5 kmh 29.80 in1009.1 mb 0.00 in0.0 mm 0.00 in0.0 mm 0.00 in0.0 mm
03:00 AM 50.1°F10.1°C 41.1°F5.1°C 71% 2.8 mph SW4.5 kmh SW 8.0 mph12.9 kmh 29.80 in1009.1 mb 0.00 in0.0 mm 0.00 in0.0 mm 0.00 in0.0 mm
03:20 AM 49.9°F9.9°C 40.9°F4.9°C 71% 2.1 mph WSW3.4 kmh WSW 8.0 mph12.9 kmh 29.80 in1009.1 mb 0.00 in0.0 mm 0.00 in0.0 mm 0.00 in0.0 mm
03:40 AM 49.8°F9.9°C 40.8°F4.9°C 71% 4.4 mph WSW7.1 kmh WSW 11.0 mph17.7 kmh 29.80 in1009.1 mb 0.00 in0.0 mm 0.00 in0.0 mm 0.00 in0.0 mm
04:00 AM 49.7°F9.8°C 40.7°F4.8°C 71% 3.6 mph W5.8 kmh W 9.0 mph14.5 kmh 29.79 in1008.8 mb 0.00 in0.0 mm 0.00 in0.0 mm 0.00 in0.0 mm
04:20 AM 49.5°F9.7°C 40.8°F4.9°C 72% 6.4 mph WSW10.3 kmh WSW 12.0 mph19.3 kmh 29.78 in1008.5 mb 0.00 in0.0 mm 0.00 in0.0 mm 0.00 in0.0 mm
04:40 AM 49.2°F9.6°C 40.6°F4.8°C 72% 4.7 mph W7.6 kmh W 11.0 mph17.7 kmh 29.78 in1008.5 mb 0.00 in0.0 mm 0.00 in0.0 mm 0.00 in0.0 mm
05:00 AM 49.2°F9.6°C 40.6°F4.8°C 72% 6.5 mph WSW10.5 kmh WSW 12.0 mph19.3 kmh 29.78 in1008.5 mb 0.00 in0.0 mm 0.00 in0.0 mm 0.00 in0.0 mm
05:20 AM 48.9°F9.4°C 40.6°F4.8°C 73% 5.5 mph WSW8.9 kmh WSW 10.0 mph16.1 kmh 29.78 in1008.5 mb 0.00 in0.0 mm 0.00 in0.0 mm 0.00 in0.0 mm
05:40 AM 48.5°F9.2°C 40.6°F4.8°C 74% 3.0 mph WSW4.8 kmh WSW 9.0 mph14.5 kmh 29.78 in1008.5 mb 0.00 in0.0 mm 0.00 in0.0 mm 0.00 in0.0 mm
06:00 AM 48.0°F8.9°C 40.5°F4.7°C 75% 3.0 mph SW4.8 kmh SW 8.0 mph12.9 kmh 29.79 in1008.8 mb 0.00 in0.0 mm 0.00 in0.0 mm 0.00 in0.0 mm
06:20 AM 47.6°F8.7°C 40.4°F4.7°C 76% 3.8 mph SW6.1 kmh SW 11.0 mph17.7 kmh 29.79 in1008.8 mb 0.00 in0.0 mm 0.00 in0.0 mm 0.00 in0.0 mm
06:40 AM 47.6°F8.7°C 40.4°F4.7°C 76% 3.4 mph SW5.5 kmh SW 7.0 mph11.3 kmh 29.79 in1008.8 mb 0.00 in0.0 mm 0.00 in0.0 mm 0.00 in0.0 mm
07:00 AM 46.9°F8.3°C 40.1°F4.5°C 77% 2.0 mph SW3.2 kmh SW 6.0 mph9.7 kmh 29.79 in1008.8 mb 0.00 in0.0 mm 0.00 in0.0 mm 0.00 in0.0 mm
07:20 AM 47.0°F8.3°C 40.2°F4.6°C 77% 2.0 mph SW3.2 kmh SW 5.0 mph8.0 kmh 29.79 in1008.8 mb 0.00 in0.0 mm 0.00 in0.0 mm 0.00 in0.0 mm
07:40 AM 46.9°F8.3°C 40.4°F4.7°C 78% 1.4 mph SW2.3 kmh SW 5.0 mph8.0 kmh 29.79 in1008.8 mb 0.00 in0.0 mm 0.00 in0.0 mm 0.00 in0.0 mm
08:00 AM 46.9°F8.3°C 40.1°F4.5°C 77% 2.0 mph SW3.2 kmh SW 5.0 mph8.0 kmh 29.80 in1009.1 mb 0.00 in0.0 mm 0.00 in0.0 mm 0.00 in0.0 mm
08:20 AM 47.0°F8.3°C 40.5°F4.7°C 78% 2.0 mph SSW3.2 kmh SSW 4.0 mph6.4 kmh 29.81 in1009.5 mb 0.00 in0.0 mm 0.00 in0.0 mm 0.00 in0.0 mm
08:40 AM 46.8°F8.2°C 40.3°F4.6°C 78% 3.0 mph SSW4.8 kmh SSW 5.0 mph8.0 kmh 29.81 in1009.5 mb 0.00 in0.0 mm 0.00 in0.0 mm 0.00 in0.0 mm
09:00 AM 47.0°F8.3°C 40.5°F4.7°C 78% 1.8 mph SSW2.9 kmh SSW 4.0 mph6.4 kmh 29.81 in1009.5 mb 0.00 in0.0 mm 0.00 in0.0 mm 0.00 in0.0 mm
09:20 AM 46.9°F8.3°C 40.4°F4.7°C 78% 2.0 mph SW3.2 kmh SW 5.0 mph8.0 kmh 29.82 in1009.8 mb 0.00 in0.0 mm 0.00 in0.0 mm 0.00 in0.0 mm
09:40 AM 47.1°F8.4°C 40.6°F4.8°C 78% 2.0 mph SW3.2 kmh SW 6.0 mph9.7 kmh 29.82 in1009.8 mb 0.00 in0.0 mm 0.00 in0.0 mm 0.00 in0.0 mm
10:00 AM 47.6°F8.7°C 40.7°F4.8°C 77% 2.7 mph SW4.3 kmh SW 6.0 mph9.7 kmh 29.83 in1010.2 mb 0.00 in0.0 mm 0.00 in0.0 mm 0.00 in0.0 mm
10:20 AM 48.4°F9.1°C 40.5°F4.7°C 74% 3.0 mph WSW4.8 kmh WSW 6.0 mph9.7 kmh 29.83 in1010.2 mb 0.00 in0.0 mm 0.00 in0.0 mm 0.00 in0.0 mm
10:40 AM 49.8°F9.9°C 40.8°F4.9°C 71% 4.0 mph WSW6.4 kmh WSW 8.0 mph12.9 kmh 29.83 in1010.2 mb 0.00 in0.0 mm 0.00 in0.0 mm 0.00 in0.0 mm
11:00 AM 50.5°F10.3°C 40.7°F4.8°C 69% 3.7 mph WSW6.0 kmh WSW 9.0 mph14.5 kmh 29.82 in1009.8 mb 0.00 in0.0 mm 0.00 in0.0 mm 0.00 in0.0 mm
11:20 AM 51.7°F10.9°C 39.5°F4.2°C 63% 3.1 mph WSW5.0 kmh WSW 10.0 mph16.1 kmh 29.82 in1009.8 mb 0.00 in0.0 mm 0.00 in0.0 mm 0.00 in0.0 mm
11:40 AM 53.2°F11.8°C 39.7°F4.3°C 60% 2.6 mph W4.2 kmh W 5.0 mph8.0 kmh 29.82 in1009.8 mb 0.00 in0.0 mm 0.00 in0.0 mm 0.00 in0.0 mm
12:00 PM 54.1°F12.3°C 39.6°F4.2°C 58% 1.1 mph NW1.8 kmh NW 5.0 mph8.0 kmh 29.81 in1009.5 mb 0.00 in0.0 mm 0.00 in0.0 mm 0.00 in0.0 mm
12:20 PM 54.5°F12.5°C 38.7°F3.7°C 55% 2.9 mph W4.7 kmh W 10.0 mph16.1 kmh 29.81 in1009.5 mb 0.00 in0.0 mm 0.00 in0.0 mm 0.00 in0.0 mm
12:40 PM 55.2°F12.9°C 38.4°F3.6°C 53% 5.0 mph NW8.0 kmh NW 10.0 mph16.1 kmh 29.80 in1009.1 mb 0.00 in0.0 mm 0.00 in0.0 mm 0.00 in0.0 mm
01:00 PM 54.8°F12.7°C 35.5°F1.9°C 48% 5.7 mph NNW9.2 kmh NNW 11.0 mph17.7 kmh 29.79 in1008.8 mb 0.00 in0.0 mm 0.00 in0.0 mm 0.00 in0.0 mm
01:20 PM 55.8°F13.2°C 36.4°F2.4°C 48% 5.0 mph NW8.0 kmh NW 10.0 mph16.1 kmh 29.78 in1008.5 mb 0.00 in0.0 mm 0.00 in0.0 mm 0.00 in0.0 mm
01:40 PM 56.1°F13.4°C 36.1°F2.3°C 47% 3.9 mph WNW6.3 kmh WNW 12.0 mph19.3 kmh 29.77 in1008.1 mb 0.00 in0.0 mm 0.00 in0.0 mm 0.00 in0.0 mm
02:00 PM 56.3°F13.5°C 36.3°F2.4°C 47% 4.2 mph NW6.8 kmh NW 10.0 mph16.1 kmh 29.76 in1007.8 mb 0.00 in0.0 mm 0.00 in0.0 mm 0.00 in0.0 mm
02:20 PM 57.2°F14.0°C 36.0°F2.2°C 45% 3.0 mph NW4.8 kmh NW 11.0 mph17.7 kmh 29.76 in1007.8 mb 0.00 in0.0 mm 0.00 in0.0 mm 0.00 in0.0 mm
02:40 PM 56.9°F13.8°C 35.8°F2.1°C 45% 4.9 mph NNW7.9 kmh NNW 12.0 mph19.3 kmh 29.75 in1007.5 mb 0.00 in0.0 mm 0.00 in0.0 mm 0.00 in0.0 mm
03:00 PM 57.3°F14.1°C 36.1°F2.3°C 45% 4.4 mph N7.1 kmh N 13.0 mph20.9 kmh 29.75 in1007.5 mb 0.00 in0.0 mm 0.00 in0.0 mm 0.00 in0.0 mm
03:20 PM 57.7°F14.3°C 36.5°F2.5°C 45% 5.4 mph NNW8.7 kmh NNW 12.0 mph19.3 kmh 29.75 in1007.5 mb 0.00 in0.0 mm 0.00 in0.0 mm 0.00 in0.0 mm
03:40 PM 57.8°F14.3°C 36.0°F2.2°C 44% 4.6 mph N7.4 kmh N 12.0 mph19.3 kmh 29.75 in1007.5 mb 0.00 in0.0 mm 0.00 in0.0 mm 0.00 in0.0 mm
04:00 PM 57.9°F14.4°C 36.1°F2.3°C 44% 3.4 mph NNW5.5 kmh NNW 8.0 mph12.9 kmh 29.74 in1007.1 mb 0.00 in0.0 mm 0.00 in0.0 mm 0.00 in0.0 mm
04:20 PM 57.8°F14.3°C 36.6°F2.6°C 45% 5.5 mph N8.9 kmh N 14.0 mph22.5 kmh 29.75 in1007.5 mb 0.00 in0.0 mm 0.00 in0.0 mm 0.00 in0.0 mm
04:40 PM 57.9°F14.4°C 35.5°F1.9°C 43% 3.8 mph N6.1 kmh N 10.0 mph16.1 kmh 29.75 in1007.5 mb 0.00 in0.0 mm 0.00 in0.0 mm 0.00 in0.0 mm
05:00 PM 58.0°F14.4°C 35.6°F2.0°C 43% 4.7 mph NNW7.6 kmh NNW 12.0 mph19.3 kmh 29.75 in1007.5 mb 0.00 in0.0 mm 0.00 in0.0 mm 0.00 in0.0 mm
05:20 PM 58.1°F14.5°C 36.3°F2.4°C 44% 2.9 mph NNW4.7 kmh NNW 11.0 mph17.7 kmh 29.75 in1007.5 mb 0.00 in0.0 mm 0.00 in0.0 mm 0.00 in0.0 mm
05:40 PM 58.1°F14.5°C 35.7°F2.1°C 43% 4.7 mph NW7.6 kmh NW 11.0 mph17.7 kmh 29.75 in1007.5 mb 0.00 in0.0 mm 0.00 in0.0 mm 0.00 in0.0 mm
06:00 PM 58.0°F14.4°C 36.2°F2.3°C 44% 5.5 mph NW8.9 kmh NW 11.0 mph17.7 kmh 29.76 in1007.8 mb 0.00 in0.0 mm 0.00 in0.0 mm 0.00 in0.0 mm
06:20 PM 57.8°F14.3°C 36.6°F2.6°C 45% 3.3 mph N5.3 kmh N 9.0 mph14.5 kmh 29.76 in1007.8 mb 0.00 in0.0 mm 0.00 in0.0 mm 0.00 in0.0 mm
06:40 PM 57.4°F14.1°C 36.2°F2.3°C 45% 2.7 mph N4.3 kmh N 8.0 mph12.9 kmh 29.77 in1008.1 mb 0.00 in0.0 mm 0.00 in0.0 mm 0.00 in0.0 mm
07:00 PM 57.2°F14.0°C 36.6°F2.6°C 46% 2.5 mph NNW4.0 kmh NNW 6.0 mph9.7 kmh 29.77 in1008.1 mb 0.00 in0.0 mm 0.00 in0.0 mm 0.00 in0.0 mm
07:20 PM 56.4°F13.6°C 35.3°F1.8°C 45% 4.4 mph NW7.1 kmh NW 9.0 mph14.5 kmh 29.78 in1008.5 mb 0.00 in0.0 mm 0.00 in0.0 mm 0.00 in0.0 mm
07:40 PM 55.9°F13.3°C 35.4°F1.9°C 46% 3.5 mph NW5.6 kmh NW 9.0 mph14.5 kmh 29.79 in1008.8 mb 0.00 in0.0 mm 0.00 in0.0 mm 0.00 in0.0 mm
08:00 PM 55.3°F12.9°C 35.4°F1.9°C 47% 3.7 mph NW6.0 kmh NW 9.0 mph14.5 kmh 29.79 in1008.8 mb 0.00 in0.0 mm 0.00 in0.0 mm 0.00 in0.0 mm
08:20 PM 55.0°F12.8°C 35.1°F1.7°C 47% 4.2 mph NW6.8 kmh NW 10.0 mph16.1 kmh 29.79 in1008.8 mb 0.00 in0.0 mm 0.00 in0.0 mm 0.00 in0.0 mm
08:40 PM 54.5°F12.5°C 35.7°F2.1°C 49% 2.5 mph NW4.0 kmh NW 8.0 mph12.9 kmh 29.79 in1008.8 mb 0.00 in0.0 mm 0.00 in0.0 mm 0.00 in0.0 mm
09:00 PM 54.1°F12.3°C 35.3°F1.8°C 49% 2.8 mph NW4.5 kmh NW 12.0 mph19.3 kmh 29.79 in1008.8 mb 0.00 in0.0 mm 0.00 in0.0 mm 0.00 in0.0 mm
09:20 PM 54.0°F12.2°C 35.3°F1.8°C 49% 5.2 mph NW8.4 kmh NW 10.0 mph16.1 kmh 29.80 in1009.1 mb 0.00 in0.0 mm 0.00 in0.0 mm 0.00 in0.0 mm
09:40 PM 53.5°F11.9°C 34.8°F1.6°C 49% 5.4 mph NW8.7 kmh NW 12.0 mph19.3 kmh 29.81 in1009.5 mb 0.00 in0.0 mm 0.00 in0.0 mm 0.00 in0.0 mm
10:00 PM 53.0°F11.7°C 34.8°F1.6°C 50% 5.1 mph NW8.2 kmh NW 11.0 mph17.7 kmh 29.81 in1009.5 mb 0.00 in0.0 mm 0.00 in0.0 mm 0.00 in0.0 mm
10:20 PM 52.7°F11.5°C 34.1°F1.2°C 49% 5.9 mph NW9.5 kmh NW 12.0 mph19.3 kmh 29.81 in1009.5 mb 0.00 in0.0 mm 0.00 in0.0 mm 0.00 in0.0 mm
10:40 PM 52.1°F11.2°C 34.0°F1.1°C 50% 6.0 mph NW9.7 kmh NW 11.0 mph17.7 kmh 29.82 in1009.8 mb 0.00 in0.0 mm 0.00 in0.0 mm 0.00 in0.0 mm
11:00 PM 51.7°F10.9°C 34.1°F1.2°C 51% 5.0 mph NW8.0 kmh NW 11.0 mph17.7 kmh 29.82 in1009.8 mb 0.00 in0.0 mm 0.00 in0.0 mm 0.00 in0.0 mm
11:20 PM 51.3°F10.7°C 34.3°F1.3°C 52% 2.5 mph NW4.0 kmh NW 11.0 mph17.7 kmh 29.83 in1010.2 mb 0.00 in0.0 mm 0.00 in0.0 mm 0.00 in0.0 mm
11:40 PM 50.9°F10.5°C 34.4°F1.3°C 53% 4.4 mph NW7.1 kmh NW 10.0 mph16.1 kmh 29.83 in1010.2 mb 0.00 in0.0 mm 0.00 in0.0 mm 0.00 in0.0 mm